Burnside, Iowa
Current Conditions -  °F | °C
As of 11:55 AM on Saturday 25 Oct 2014 (Local Time) from KEBS Reporting Station
Clear Clear  
Wind Chill: 64°   Ceiling: Unl
Heat Index: 64°   Visibility: 10mi
Dew Point: 36°   Wind: 15mph
Humidity: 34%   Direction: 10°N
Pressure: 30.1"   Gusts: NA
Location:  42.35°N, 94.11°W
Report Text: KEBS 251655Z AUTO 01013KT 10SM CLR 18/02 A3010 RMK AO2
Loading
Personal Weather Stations






























Interactive Weather Map
Tropical Storm Tracking
New forecast layout! Learn more

10-Day Weather Forecast

Advertisements
Track Severe Weather on mobile